sensor_id;sensor_type;location;lat;lon;timestamp;pressure;altitude;pressure_sealevel;temperature;humidity
55550;BME280;41397;49.972;18.944;2023-03-22T00:01:27;101797.18;;;12.72;69.51
55550;BME280;41397;49.972;18.944;2023-03-22T00:04:32;101795.17;;;12.74;69.37
55550;BME280;41397;49.972;18.944;2023-03-22T00:07:33;101800.89;;;12.71;69.15
55550;BME280;41397;49.972;18.944;2023-03-22T00:10:36;101794.44;;;12.72;69.15
55550;BME280;41397;49.972;18.944;2023-03-22T00:13:38;101799.92;;;12.72;69.10
55550;BME280;41397;49.972;18.944;2023-03-22T00:16:43;101794.53;;;12.70;69.09
55550;BME280;41397;49.972;18.944;2023-03-22T00:19:46;101784.56;;;12.69;68.83
55550;BME280;41397;49.972;18.944;2023-03-22T00:22:52;101789.18;;;12.69;69.08
55550;BME280;41397;49.972;18.944;2023-03-22T00:25:54;101782.79;;;12.68;69.15
55550;BME280;41397;49.972;18.944;2023-03-22T00:28:56;101773.91;;;12.64;69.13
55550;BME280;41397;49.972;18.944;2023-03-22T00:31:57;101771.41;;;12.61;69.06
55550;BME280;41397;49.972;18.944;2023-03-22T00:35:01;101772.61;;;12.57;69.14
55550;BME280;41397;49.972;18.944;2023-03-22T00:38:03;101763.88;;;12.52;69.25
55550;BME280;41397;49.972;18.944;2023-03-22T00:41:14;101765.95;;;12.49;69.13
55550;BME280;41397;49.972;18.944;2023-03-22T00:44:16;101766.18;;;12.46;69.26
55550;BME280;41397;49.972;18.944;2023-03-22T00:47:17;101762.67;;;12.43;69.13
55550;BME280;41397;49.972;18.944;2023-03-22T00:50:18;101756.21;;;12.44;69.19
55550;BME280;41397;49.972;18.944;2023-03-22T00:53:20;101747.30;;;12.41;69.04
55550;BME280;41397;49.972;18.944;2023-03-22T00:56:21;101744.80;;;12.38;69.04
55550;BME280;41397;49.972;18.944;2023-03-22T00:59:28;101739.77;;;12.32;68.87
55550;BME280;41397;49.972;18.944;2023-03-22T01:02:29;101738.26;;;12.28;68.60
55550;BME280;41397;49.972;18.944;2023-03-22T01:05:32;101747.69;;;12.24;68.64
55550;BME280;41397;49.972;18.944;2023-03-22T01:08:34;101737.95;;;12.19;68.64
55550;BME280;41397;49.972;18.944;2023-03-22T01:11:38;101727.64;;;12.10;68.57
55550;BME280;41397;49.972;18.944;2023-03-22T01:14:46;101731.61;;;12.06;68.74
55550;BME280;41397;49.972;18.944;2023-03-22T01:17:47;101732.58;;;12.05;68.57
55550;BME280;41397;49.972;18.944;2023-03-22T01:20:50;101726.45;;;12.02;68.38
55550;BME280;41397;49.972;18.944;2023-03-22T01:23:51;101732.71;;;12.04;68.25
55550;BME280;41397;49.972;18.944;2023-03-22T01:26:54;101737.42;;;12.02;67.93
55550;BME280;41397;49.972;18.944;2023-03-22T01:29:56;101732.80;;;12.02;68.03
55550;BME280;41397;49.972;18.944;2023-03-22T01:32:57;101725.45;;;12.03;67.83
55550;BME280;41397;49.972;18.944;2023-03-22T01:35:59;101719.97;;;12.03;67.79
55550;BME280;41397;49.972;18.944;2023-03-22T01:39:03;101706.49;;;11.99;67.48
55550;BME280;41397;49.972;18.944;2023-03-22T01:42:04;101689.27;;;11.97;67.36
55550;BME280;41397;49.972;18.944;2023-03-22T01:51:35;101685.58;;;11.86;67.38
55550;BME280;41397;49.972;18.944;2023-03-22T01:54:42;101693.98;;;11.83;67.27
55550;BME280;41397;49.972;18.944;2023-03-22T01:57:49;101701.44;;;11.81;67.36
55550;BME280;41397;49.972;18.944;2023-03-22T02:00:51;101692.34;;;11.80;66.88
55550;BME280;41397;49.972;18.944;2023-03-22T02:04:08;101692.79;;;11.74;66.48
55550;BME280;41397;49.972;18.944;2023-03-22T02:07:10;101694.77;;;11.72;66.60
55550;BME280;41397;49.972;18.944;2023-03-22T02:10:21;101694.12;;;11.68;66.31
55550;BME280;41397;49.972;18.944;2023-03-22T02:13:36;101691.60;;;11.65;65.89
55550;BME280;41397;49.972;18.944;2023-03-22T02:20:08;101699.50;;;11.57;65.54
55550;BME280;41397;49.972;18.944;2023-03-22T02:29:58;101691.05;;;11.47;65.59
55550;BME280;41397;49.972;18.944;2023-03-22T02:33:14;101684.05;;;11.43;65.53
55550;BME280;41397;49.972;18.944;2023-03-22T02:42:59;101683.16;;;11.30;65.41
55550;BME280;41397;49.972;18.944;2023-03-22T02:46:07;101685.22;;;11.26;65.30
55550;BME280;41397;49.972;18.944;2023-03-22T02:49:21;101687.31;;;11.23;65.42
55550;BME280;41397;49.972;18.944;2023-03-22T02:52:31;101688.39;;;11.20;65.29
55550;BME280;41397;49.972;18.944;2023-03-22T02:58:51;101671.54;;;11.14;65.07
55550;BME280;41397;49.972;18.944;2023-03-22T03:01:56;101674.59;;;11.09;65.10
55550;BME280;41397;49.972;18.944;2023-03-22T03:04:59;101669.21;;;11.07;65.38
55550;BME280;41397;49.972;18.944;2023-03-22T03:08:01;101676.55;;;11.07;65.35
55550;BME280;41397;49.972;18.944;2023-03-22T03:11:04;101665.95;;;11.02;65.61
55550;BME280;41397;49.972;18.944;2023-03-22T03:14:05;101667.77;;;11.02;65.06
55550;BME280;41397;49.972;18.944;2023-03-22T03:30:09;101680.77;;;10.85;64.49
55550;BME280;41397;49.972;18.944;2023-03-22T03:33:15;101675.85;;;10.78;64.48
55550;BME280;41397;49.972;18.944;2023-03-22T03:36:21;101689.62;;;10.76;64.52
55550;BME280;41397;49.972;18.944;2023-03-22T03:39:27;101684.45;;;10.72;65.10
55550;BME280;41397;49.972;18.944;2023-03-22T03:42:31;101685.74;;;10.66;64.83
55550;BME280;41397;49.972;18.944;2023-03-22T03:45:35;101685.18;;;10.61;64.63
55550;BME280;41397;49.972;18.944;2023-03-22T03:48:39;101693.81;;;10.55;64.51
55550;BME280;41397;49.972;18.944;2023-03-22T03:51:52;101701.23;;;10.53;64.67
55550;BME280;41397;49.972;18.944;2023-03-22T03:54:55;101699.58;;;10.50;64.61
55550;BME280;41397;49.972;18.944;2023-03-22T03:57:56;101697.95;;;10.48;64.78
55550;BME280;41397;49.972;18.944;2023-03-22T04:00:58;101699.91;;;10.46;64.67
55550;BME280;41397;49.972;18.944;2023-03-22T04:03:59;101704.59;;;10.43;65.78
55550;BME280;41397;49.972;18.944;2023-03-22T04:07:03;101700.78;;;10.46;65.96
55550;BME280;41397;49.972;18.944;2023-03-22T04:10:06;101707.03;;;10.48;66.09
55550;BME280;41397;49.972;18.944;2023-03-22T04:13:07;101702.44;;;10.49;65.93
55550;BME280;41397;49.972;18.944;2023-03-22T04:16:10;101703.96;;;10.53;66.08
55550;BME280;41397;49.972;18.944;2023-03-22T04:19:12;101690.98;;;10.56;66.19
55550;BME280;41397;49.972;18.944;2023-03-22T04:22:13;101693.59;;;10.58;66.14
55550;BME280;41397;49.972;18.944;2023-03-22T04:25:18;101694.47;;;10.58;66.27
55550;BME280;41397;49.972;18.944;2023-03-22T04:28:22;101689.91;;;10.59;66.71
55550;BME280;41397;49.972;18.944;2023-03-22T04:31:31;101688.99;;;10.58;66.54
55550;BME280;41397;49.972;18.944;2023-03-22T04:34:35;101698.86;;;10.61;66.87
55550;BME280;41397;49.972;18.944;2023-03-22T04:37:36;101699.84;;;10.60;67.16
55550;BME280;41397;49.972;18.944;2023-03-22T04:40:38;101698.86;;;10.61;66.57
55550;BME280;41397;49.972;18.944;2023-03-22T04:43:46;101686.74;;;10.65;66.55
55550;BME280;41397;49.972;18.944;2023-03-22T04:46:57;101692.88;;;10.69;67.05
55550;BME280;41397;49.972;18.944;2023-03-22T04:49:58;101681.93;;;10.69;67.40
55550;BME280;41397;49.972;18.944;2023-03-22T04:53:00;101688.97;;;10.73;67.44
55550;BME280;41397;49.972;18.944;2023-03-22T04:56:01;101695.01;;;10.78;67.20
55550;BME280;41397;49.972;18.944;2023-03-22T04:59:06;101693.79;;;10.82;66.66
55550;BME280;41397;49.972;18.944;2023-03-22T05:02:07;101693.48;;;10.86;67.04
55550;BME280;41397;49.972;18.944;2023-03-22T05:05:09;101692.41;;;10.89;66.91
55550;BME280;41397;49.972;18.944;2023-03-22T05:11:41;101681.12;;;10.94;66.68
55550;BME280;41397;49.972;18.944;2023-03-22T05:18:20;101688.71;;;11.03;66.96
55550;BME280;41397;49.972;18.944;2023-03-22T05:28:49;101681.80;;;11.10;67.22
55550;BME280;41397;49.972;18.944;2023-03-22T05:32:02;101680.94;;;11.09;66.99
55550;BME280;41397;49.972;18.944;2023-03-22T05:52:13;101695.19;;;11.15;65.70
55550;BME280;41397;49.972;18.944;2023-03-22T06:02:16;101691.05;;;11.22;66.22
55550;BME280;41397;49.972;18.944;2023-03-22T06:08:48;101691.71;;;11.38;66.09
55550;BME280;41397;49.972;18.944;2023-03-22T06:21:40;101695.66;;;11.60;65.40
55550;BME280;41397;49.972;18.944;2023-03-22T06:24:45;101698.05;;;11.64;65.63
55550;BME280;41397;49.972;18.944;2023-03-22T06:27:47;101704.85;;;11.71;65.78
55550;BME280;41397;49.972;18.944;2023-03-22T06:30:48;101699.25;;;11.73;65.38
55550;BME280;41397;49.972;18.944;2023-03-22T06:33:50;101704.31;;;11.79;65.32
55550;BME280;41397;49.972;18.944;2023-03-22T06:36:53;101703.22;;;11.82;65.62
55550;BME280;41397;49.972;18.944;2023-03-22T06:39:54;101704.44;;;11.90;65.80
55550;BME280;41397;49.972;18.944;2023-03-22T06:42:56;101697.63;;;11.96;65.82
55550;BME280;41397;49.972;18.944;2023-03-22T06:45:57;101703.52;;;12.03;65.63
55550;BME280;41397;49.972;18.944;2023-03-22T06:49:01;101707.80;;;12.07;65.41
55550;BME280;41397;49.972;18.944;2023-03-22T06:52:03;101707.98;;;12.16;65.19
55550;BME280;41397;49.972;18.944;2023-03-22T06:55:04;101701.30;;;12.20;65.90
55550;BME280;41397;49.972;18.944;2023-03-22T06:58:06;101699.96;;;12.26;66.12
55550;BME280;41397;49.972;18.944;2023-03-22T07:01:09;101701.27;;;12.33;66.15
55550;BME280;41397;49.972;18.944;2023-03-22T07:04:10;101703.41;;;12.41;66.03
55550;BME280;41397;49.972;18.944;2023-03-22T07:07:12;101700.33;;;12.46;66.01
55550;BME280;41397;49.972;18.944;2023-03-22T07:10:13;101702.61;;;12.52;66.39
55550;BME280;41397;49.972;18.944;2023-03-22T07:13:17;101702.16;;;12.58;66.18
55550;BME280;41397;49.972;18.944;2023-03-22T07:16:19;101698.81;;;12.65;66.06
55550;BME280;41397;49.972;18.944;2023-03-22T07:19:20;101692.98;;;12.70;66.04
55550;BME280;41397;49.972;18.944;2023-03-22T07:22:22;101702.62;;;12.76;65.28
55550;BME280;41397;49.972;18.944;2023-03-22T07:25:25;101700.51;;;12.79;65.46
55550;BME280;41397;49.972;18.944;2023-03-22T07:28:27;101697.41;;;12.84;64.93
55550;BME280;41397;49.972;18.944;2023-03-22T07:31:29;101697.31;;;12.85;65.06
55550;BME280;41397;49.972;18.944;2023-03-22T07:34:35;101686.86;;;12.91;65.17
55550;BME280;41397;49.972;18.944;2023-03-22T07:37:39;101695.59;;;12.96;65.22
55550;BME280;41397;49.972;18.944;2023-03-22T07:40:41;101696.77;;;13.04;64.89
55550;BME280;41397;49.972;18.944;2023-03-22T07:43:43;101688.91;;;13.11;64.56
55550;BME280;41397;49.972;18.944;2023-03-22T07:46:45;101693.66;;;13.20;64.79
55550;BME280;41397;49.972;18.944;2023-03-22T07:49:47;101686.48;;;13.30;64.39
55550;BME280;41397;49.972;18.944;2023-03-22T07:52:49;101685.89;;;13.38;64.11
55550;BME280;41397;49.972;18.944;2023-03-22T07:55:50;101690.27;;;13.52;64.17
55550;BME280;41397;49.972;18.944;2023-03-22T07:58:51;101692.07;;;13.64;64.02
55550;BME280;41397;49.972;18.944;2023-03-22T08:01:53;101686.93;;;13.71;64.45
55550;BME280;41397;49.972;18.944;2023-03-22T08:04:55;101688.05;;;13.80;64.29
55550;BME280;41397;49.972;18.944;2023-03-22T08:11:13;101684.06;;;13.95;64.64
55550;BME280;41397;49.972;18.944;2023-03-22T08:14:15;101685.29;;;14.02;63.75
55550;BME280;41397;49.972;18.944;2023-03-22T08:17:17;101687.42;;;14.10;63.80
55550;BME280;41397;49.972;18.944;2023-03-22T08:20:19;101683.77;;;14.20;63.91
55550;BME280;41397;49.972;18.944;2023-03-22T08:23:20;101682.63;;;14.34;63.66
55550;BME280;41397;49.972;18.944;2023-03-22T08:26:22;101685.51;;;14.44;63.22
55550;BME280;41397;49.972;18.944;2023-03-22T08:29:24;101692.21;;;14.51;64.11
55550;BME280;41397;49.972;18.944;2023-03-22T08:32:26;101684.70;;;14.64;62.81
55550;BME280;41397;49.972;18.944;2023-03-22T08:35:28;101676.55;;;14.74;62.90
55550;BME280;41397;49.972;18.944;2023-03-22T08:38:29;101689.25;;;14.86;62.12
55550;BME280;41397;49.972;18.944;2023-03-22T08:41:32;101687.73;;;14.94;62.55
55550;BME280;41397;49.972;18.944;2023-03-22T08:44:34;101686.54;;;15.07;62.80
55550;BME280;41397;49.972;18.944;2023-03-22T08:47:36;101679.09;;;15.19;62.24
55550;BME280;41397;49.972;18.944;2023-03-22T08:50:38;101682.03;;;15.27;62.25
55550;BME280;41397;49.972;18.944;2023-03-22T08:53:40;101685.15;;;15.34;61.61
55550;BME280;41397;49.972;18.944;2023-03-22T08:56:42;101679.55;;;15.45;61.28
55550;BME280;41397;49.972;18.944;2023-03-22T08:59:43;101682.50;;;15.53;60.97
55550;BME280;41397;49.972;18.944;2023-03-22T09:02:50;101681.37;;;15.56;60.69
55550;BME280;41397;49.972;18.944;2023-03-22T09:06:03;101683.10;;;15.57;60.16
55550;BME280;41397;49.972;18.944;2023-03-22T09:09:17;101675.57;;;15.59;60.47
55550;BME280;41397;49.972;18.944;2023-03-22T09:12:18;101681.03;;;15.70;60.78
55550;BME280;41397;49.972;18.944;2023-03-22T09:15:20;101679.32;;;15.79;60.30
55550;BME280;41397;49.972;18.944;2023-03-22T09:18:22;101676.75;;;15.87;60.52
55550;BME280;41397;49.972;18.944;2023-03-22T09:21:24;101666.62;;;15.88;60.78
55550;BME280;41397;49.972;18.944;2023-03-22T09:24:26;101665.02;;;15.95;60.00
55550;BME280;41397;49.972;18.944;2023-03-22T09:27:27;101656.46;;;15.98;60.56
55550;BME280;41397;49.972;18.944;2023-03-22T09:30:29;101653.30;;;16.03;60.15
55550;BME280;41397;49.972;18.944;2023-03-22T09:33:30;101647.49;;;16.06;60.09
55550;BME280;41397;49.972;18.944;2023-03-22T09:36:32;101646.34;;;16.08;59.25
55550;BME280;41397;49.972;18.944;2023-03-22T09:39:34;101651.73;;;16.10;59.70
55550;BME280;41397;49.972;18.944;2023-03-22T09:42:44;101640.27;;;16.14;59.86
55550;BME280;41397;49.972;18.944;2023-03-22T09:45:49;101652.49;;;16.22;59.97
55550;BME280;41397;49.972;18.944;2023-03-22T09:48:57;101658.59;;;16.25;60.04
55550;BME280;41397;49.972;18.944;2023-03-22T09:52:14;101652.36;;;16.33;60.25
55550;BME280;41397;49.972;18.944;2023-03-22T09:58:52;101644.83;;;16.45;59.90
55550;BME280;41397;49.972;18.944;2023-03-22T10:05:34;101645.30;;;16.59;60.12
55550;BME280;41397;49.972;18.944;2023-03-22T10:08:51;101627.11;;;16.67;60.51
55550;BME280;41397;49.972;18.944;2023-03-22T10:15:16;101617.85;;;16.87;59.96
55550;BME280;41397;49.972;18.944;2023-03-22T10:21:54;101619.30;;;17.11;59.05
55550;BME280;41397;49.972;18.944;2023-03-22T10:25:05;101612.86;;;17.20;59.26
55550;BME280;41397;49.972;18.944;2023-03-22T10:31:23;101610.60;;;17.43;57.08
55550;BME280;41397;49.972;18.944;2023-03-22T10:34:29;101613.66;;;17.49;56.39
55550;BME280;41397;49.972;18.944;2023-03-22T10:37:35;101610.40;;;17.64;57.05
55550;BME280;41397;49.972;18.944;2023-03-22T10:44:28;101605.84;;;17.82;56.39
55550;BME280;41397;49.972;18.944;2023-03-22T10:47:49;101594.88;;;17.90;54.92
55550;BME280;41397;49.972;18.944;2023-03-22T10:50:54;101598.84;;;18.06;55.07
55550;BME280;41397;49.972;18.944;2023-03-22T10:53:57;101598.76;;;18.25;54.88
55550;BME280;41397;49.972;18.944;2023-03-22T10:57:02;101601.70;;;18.41;53.72
55550;BME280;41397;49.972;18.944;2023-03-22T11:00:05;101590.06;;;18.56;53.04
55550;BME280;41397;49.972;18.944;2023-03-22T11:06:27;101583.15;;;18.96;53.63
55550;BME280;41397;49.972;18.944;2023-03-22T11:09:36;101577.80;;;19.20;51.82
55550;BME280;41397;49.972;18.944;2023-03-22T11:12:49;101580.68;;;19.37;51.42
55550;BME280;41397;49.972;18.944;2023-03-22T11:15:55;101578.55;;;19.57;50.59
55550;BME280;41397;49.972;18.944;2023-03-22T11:19:04;101577.59;;;19.66;49.36
55550;BME280;41397;49.972;18.944;2023-03-22T11:25:25;101565.02;;;19.88;48.13
55550;BME280;41397;49.972;18.944;2023-03-22T11:28:33;101570.77;;;19.94;48.67
55550;BME280;41397;49.972;18.944;2023-03-22T11:38:02;101567.12;;;19.94;48.69
55550;BME280;41397;49.972;18.944;2023-03-22T11:44:31;101551.40;;;20.11;47.99
55550;BME280;41397;49.972;18.944;2023-03-22T11:47:37;101545.67;;;20.21;47.89
55550;BME280;41397;49.972;18.944;2023-03-22T11:50:44;101543.61;;;20.23;47.71
55550;BME280;41397;49.972;18.944;2023-03-22T11:53:47;101543.77;;;20.29;46.98
55550;BME280;41397;49.972;18.944;2023-03-22T11:56:49;101539.12;;;20.30;47.19
55550;BME280;41397;49.972;18.944;2023-03-22T11:59:59;101540.50;;;20.34;47.47
55550;BME280;41397;49.972;18.944;2023-03-22T12:03:15;101540.15;;;20.37;47.14
55550;BME280;41397;49.972;18.944;2023-03-22T12:06:27;101533.23;;;20.41;47.49
55550;BME280;41397;49.972;18.944;2023-03-22T12:16:02;101527.13;;;20.46;46.31
55550;BME280;41397;49.972;18.944;2023-03-22T12:22:26;101513.59;;;20.51;46.16
55550;BME280;41397;49.972;18.944;2023-03-22T12:25:32;101511.88;;;20.50;47.00
55550;BME280;41397;49.972;18.944;2023-03-22T12:35:43;101512.25;;;20.55;46.97
55550;BME280;41397;49.972;18.944;2023-03-22T12:38:54;101496.79;;;20.60;47.00
55550;BME280;41397;49.972;18.944;2023-03-22T12:42:01;101509.28;;;20.65;46.45
55550;BME280;41397;49.972;18.944;2023-03-22T12:51:48;101492.61;;;20.65;46.56
55550;BME280;41397;49.972;18.944;2023-03-22T12:55:01;101493.81;;;20.70;46.37
55550;BME280;41397;49.972;18.944;2023-03-22T13:01:50;101486.37;;;20.71;46.42
55550;BME280;41397;49.972;18.944;2023-03-22T13:19:02;101469.50;;;20.72;44.56
55550;BME280;41397;49.972;18.944;2023-03-22T13:29:10;101455.95;;;20.77;43.58
55550;BME280;41397;49.972;18.944;2023-03-22T13:39:22;101452.10;;;20.87;44.20
55550;BME280;41397;49.972;18.944;2023-03-22T13:49:14;101449.99;;;20.97;42.87
55550;BME280;41397;49.972;18.944;2023-03-22T13:52:26;101442.35;;;20.99;43.10
55550;BME280;41397;49.972;18.944;2023-03-22T14:08:57;101427.41;;;20.92;43.84
55550;BME280;41397;49.972;18.944;2023-03-22T14:15:21;101417.90;;;20.78;43.80
55550;BME280;41397;49.972;18.944;2023-03-22T14:18:26;101417.75;;;20.71;43.43
55550;BME280;41397;49.972;18.944;2023-03-22T14:21:34;101423.82;;;20.67;43.30
55550;BME280;41397;49.972;18.944;2023-03-22T14:24:37;101413.43;;;20.60;43.68
55550;BME280;41397;49.972;18.944;2023-03-22T14:27:39;101403.33;;;20.59;43.69
55550;BME280;41397;49.972;18.944;2023-03-22T14:30:41;101409.09;;;20.58;43.42
55550;BME280;41397;49.972;18.944;2023-03-22T14:33:42;101418.13;;;20.60;43.79
55550;BME280;41397;49.972;18.944;2023-03-22T14:36:47;101414.28;;;20.61;43.99
55550;BME280;41397;49.972;18.944;2023-03-22T14:39:55;101403.16;;;20.61;43.27
55550;BME280;41397;49.972;18.944;2023-03-22T14:43:22;101405.78;;;20.63;43.59
55550;BME280;41397;49.972;18.944;2023-03-22T14:46:33;101402.31;;;20.60;44.11
55550;BME280;41397;49.972;18.944;2023-03-22T14:49:43;101401.60;;;20.58;43.80
55550;BME280;41397;49.972;18.944;2023-03-22T14:52:47;101402.66;;;20.57;44.05
55550;BME280;41397;49.972;18.944;2023-03-22T14:55:55;101401.97;;;20.55;43.95
55550;BME280;41397;49.972;18.944;2023-03-22T14:59:04;101400.54;;;20.51;44.25
55550;BME280;41397;49.972;18.944;2023-03-22T15:05:22;101389.97;;;20.47;44.36
55550;BME280;41397;49.972;18.944;2023-03-22T15:08:30;101383.71;;;20.45;44.63
55550;BME280;41397;49.972;18.944;2023-03-22T15:11:33;101379.88;;;20.37;44.40
55550;BME280;41397;49.972;18.944;2023-03-22T15:14:40;101385.29;;;20.31;44.50
55550;BME280;41397;49.972;18.944;2023-03-22T15:17:43;101385.64;;;20.28;43.75
55550;BME280;41397;49.972;18.944;2023-03-22T15:20:48;101388.77;;;20.25;44.21
55550;BME280;41397;49.972;18.944;2023-03-22T15:23:54;101392.57;;;20.24;44.37
55550;BME280;41397;49.972;18.944;2023-03-22T15:26:56;101391.20;;;20.20;44.49
55550;BME280;41397;49.972;18.944;2023-03-22T15:29:58;101387.57;;;20.19;47.20
55550;BME280;41397;49.972;18.944;2023-03-22T15:36:20;101389.98;;;20.22;49.16
55550;BME280;41397;49.972;18.944;2023-03-22T15:42:36;101382.16;;;20.34;50.54
55550;BME280;41397;49.972;18.944;2023-03-22T15:45:43;101384.77;;;20.35;49.81
55550;BME280;41397;49.972;18.944;2023-03-22T15:52:08;101380.59;;;20.39;48.97
55550;BME280;41397;49.972;18.944;2023-03-22T15:55:13;101371.90;;;20.43;50.58
55550;BME280;41397;49.972;18.944;2023-03-22T16:30:42;101385.09;;;20.32;46.93
55550;BME280;41397;49.972;18.944;2023-03-22T16:37:19;101387.02;;;20.15;45.70
55550;BME280;41397;49.972;18.944;2023-03-22T16:45:52;101374.18;;;19.82;46.61
55550;BME280;41397;49.972;18.944;2023-03-22T16:48:54;101373.66;;;19.70;46.83
55550;BME280;41397;49.972;18.944;2023-03-22T17:02:43;101377.80;;;19.15;47.41
55550;BME280;41397;49.972;18.944;2023-03-22T17:06:02;101381.04;;;19.02;47.75
55550;BME280;41397;49.972;18.944;2023-03-22T17:09:04;101380.15;;;18.94;47.76
55550;BME280;41397;49.972;18.944;2023-03-22T17:12:16;101387.52;;;18.85;47.99
55550;BME280;41397;49.972;18.944;2023-03-22T17:15:31;101380.51;;;18.73;48.13
55550;BME280;41397;49.972;18.944;2023-03-22T17:18:52;101384.80;;;18.67;48.20
55550;BME280;41397;49.972;18.944;2023-03-22T17:21:57;101391.16;;;18.59;48.37
55550;BME280;41397;49.972;18.944;2023-03-22T17:25:02;101384.22;;;18.55;48.46
55550;BME280;41397;49.972;18.944;2023-03-22T17:28:30;101398.88;;;18.48;48.84
55550;BME280;41397;49.972;18.944;2023-03-22T17:31:46;101406.55;;;18.36;49.19
55550;BME280;41397;49.972;18.944;2023-03-22T17:34:48;101403.37;;;18.23;49.12
55550;BME280;41397;49.972;18.944;2023-03-22T17:37:50;101408.33;;;18.19;49.32
55550;BME280;41397;49.972;18.944;2023-03-22T17:40:53;101405.89;;;18.16;49.32
55550;BME280;41397;49.972;18.944;2023-03-22T17:47:25;101415.63;;;18.02;49.74
55550;BME280;41397;49.972;18.944;2023-03-22T18:10:19;101432.41;;;17.73;50.70
55550;BME280;41397;49.972;18.944;2023-03-22T18:13:23;101427.38;;;17.68;50.94
55550;BME280;41397;49.972;18.944;2023-03-22T18:16:28;101431.32;;;17.66;51.03
55550;BME280;41397;49.972;18.944;2023-03-22T18:26:41;101429.96;;;17.52;51.30
55550;BME280;41397;49.972;18.944;2023-03-22T18:30:00;101428.51;;;17.48;51.49
55550;BME280;41397;49.972;18.944;2023-03-22T18:33:33;101440.76;;;17.45;51.59
55550;BME280;41397;49.972;18.944;2023-03-22T18:40:20;101425.11;;;17.36;51.63
55550;BME280;41397;49.972;18.944;2023-03-22T18:47:06;101425.00;;;17.28;52.04
55550;BME280;41397;49.972;18.944;2023-03-22T18:53:59;101433.91;;;17.22;52.20
55550;BME280;41397;49.972;18.944;2023-03-22T18:57:01;101422.28;;;17.18;52.38
55550;BME280;41397;49.972;18.944;2023-03-22T19:00:08;101426.52;;;17.13;52.35
55550;BME280;41397;49.972;18.944;2023-03-22T20:03:12;101408.91;;;16.76;53.19
55550;BME280;41397;49.972;18.944;2023-03-22T20:06:18;101419.96;;;16.76;53.25
55550;BME280;41397;49.972;18.944;2023-03-22T20:09:26;101418.23;;;16.75;53.29
55550;BME280;41397;49.972;18.944;2023-03-22T20:12:44;101417.51;;;16.73;53.34
55550;BME280;41397;49.972;18.944;2023-03-22T20:16:05;101414.02;;;16.71;53.59
55550;BME280;41397;49.972;18.944;2023-03-22T20:19:21;101407.77;;;16.69;53.34
55550;BME280;41397;49.972;18.944;2023-03-22T20:22:41;101408.07;;;16.66;53.80
55550;BME280;41397;49.972;18.944;2023-03-22T20:36:08;101404.02;;;16.60;53.85
55550;BME280;41397;49.972;18.944;2023-03-22T20:39:11;101405.91;;;16.60;53.89
55550;BME280;41397;49.972;18.944;2023-03-22T20:49:17;101402.16;;;16.51;54.12
55550;BME280;41397;49.972;18.944;2023-03-22T21:09:26;101396.23;;;16.36;54.46
55550;BME280;41397;49.972;18.944;2023-03-22T21:12:42;101396.09;;;16.38;54.44
55550;BME280;41397;49.972;18.944;2023-03-22T21:15:53;101391.73;;;16.35;54.49
55550;BME280;41397;49.972;18.944;2023-03-22T21:18:54;101400.88;;;16.36;54.63
55550;BME280;41397;49.972;18.944;2023-03-22T21:21:58;101397.55;;;16.32;54.54
55550;BME280;41397;49.972;18.944;2023-03-22T21:25:10;101404.23;;;16.30;54.71
55550;BME280;41397;49.972;18.944;2023-03-22T21:28:11;101409.77;;;16.30;54.87
55550;BME280;41397;49.972;18.944;2023-03-22T21:31:14;101389.71;;;16.28;54.73
55550;BME280;41397;49.972;18.944;2023-03-22T21:34:18;101400.18;;;16.24;54.80
55550;BME280;41397;49.972;18.944;2023-03-22T21:37:20;101397.13;;;16.17;54.88
55550;BME280;41397;49.972;18.944;2023-03-22T21:40:21;101402.50;;;16.19;54.78
55550;BME280;41397;49.972;18.944;2023-03-22T21:43:24;101402.50;;;16.19;54.93
55550;BME280;41397;49.972;18.944;2023-03-22T21:46:26;101405.56;;;16.16;54.80
55550;BME280;41397;49.972;18.944;2023-03-22T21:49:30;101401.34;;;16.12;55.01
55550;BME280;41397;49.972;18.944;2023-03-22T21:52:32;101409.62;;;16.12;54.84
55550;BME280;41397;49.972;18.944;2023-03-22T21:55:36;101412.54;;;16.10;54.99
55550;BME280;41397;49.972;18.944;2023-03-22T21:58:38;101403.41;;;16.10;55.08
55550;BME280;41397;49.972;18.944;2023-03-22T22:04:59;101402.10;;;16.04;55.08
55550;BME280;41397;49.972;18.944;2023-03-22T22:08:04;101405.13;;;16.01;55.01
55550;BME280;41397;49.972;18.944;2023-03-22T22:11:06;101398.91;;;15.99;55.19
55550;BME280;41397;49.972;18.944;2023-03-22T22:14:08;101407.47;;;15.96;55.13
55550;BME280;41397;49.972;18.944;2023-03-22T22:17:10;101399.47;;;15.93;55.47
55550;BME280;41397;49.972;18.944;2023-03-22T22:20:13;101400.49;;;15.92;55.27
55550;BME280;41397;49.972;18.944;2023-03-22T22:23:14;101405.56;;;15.87;55.61
55550;BME280;41397;49.972;18.944;2023-03-22T22:26:16;101406.00;;;15.82;55.74
55550;BME280;41397;49.972;18.944;2023-03-22T22:29:18;101411.80;;;15.79;55.63
55550;BME280;41397;49.972;18.944;2023-03-22T22:32:20;101406.59;;;15.76;55.73
55550;BME280;41397;49.972;18.944;2023-03-22T22:35:21;101405.84;;;15.74;55.64
55550;BME280;41397;49.972;18.944;2023-03-22T22:38:23;101403.38;;;15.71;55.82
55550;BME280;41397;49.972;18.944;2023-03-22T22:41:24;101401.05;;;15.66;55.96
55550;BME280;41397;49.972;18.944;2023-03-22T22:44:26;101403.07;;;15.64;56.14
55550;BME280;41397;49.972;18.944;2023-03-22T22:47:27;101399.87;;;15.59;56.16
55550;BME280;41397;49.972;18.944;2023-03-22T22:50:29;101407.69;;;15.54;56.27